sensor_id;sensor_type;location;lat;lon;timestamp;pressure;altitude;pressure_sealevel;temperature;humidity
14204;BME280;7185;51.854;6.622;2023-05-20T00:01:43;102102.31;;;17.06;52.24
14204;BME280;7185;51.854;6.622;2023-05-20T00:04:16;102102.47;;;17.00;52.78
14204;BME280;7185;51.854;6.622;2023-05-20T00:06:48;102095.28;;;17.05;52.88
14204;BME280;7185;51.854;6.622;2023-05-20T00:09:20;102097.13;;;17.01;52.89
14204;BME280;7185;51.854;6.622;2023-05-20T00:11:51;102103.97;;;17.10;52.73
14204;BME280;7185;51.854;6.622;2023-05-20T00:14:23;102096.88;;;17.12;52.86
14204;BME280;7185;51.854;6.622;2023-05-20T00:16:54;102102.50;;;16.97;53.41
14204;BME280;7185;51.854;6.622;2023-05-20T00:19:27;102104.34;;;16.95;53.58
14204;BME280;7185;51.854;6.622;2023-05-20T00:21:59;102102.38;;;17.03;53.31
14204;BME280;7185;51.854;6.622;2023-05-20T00:24:31;102099.09;;;16.90;53.48
14204;BME280;7185;51.854;6.622;2023-05-20T00:27:02;102092.19;;;16.81;53.92
14204;BME280;7185;51.854;6.622;2023-05-20T00:29:34;102099.31;;;16.79;54.49
14204;BME280;7185;51.854;6.622;2023-05-20T00:32:06;102098.25;;;16.88;54.35
14204;BME280;7185;51.854;6.622;2023-05-20T00:34:39;102091.38;;;16.79;54.31
14204;BME280;7185;51.854;6.622;2023-05-20T00:37:11;102085.19;;;16.80;54.72
14204;BME280;7185;51.854;6.622;2023-05-20T00:39:42;102099.50;;;16.70;54.94
14204;BME280;7185;51.854;6.622;2023-05-20T00:42:18;102099.75;;;16.57;55.50
14204;BME280;7185;51.854;6.622;2023-05-20T00:44:51;102094.44;;;16.57;55.22
14204;BME280;7185;51.854;6.622;2023-05-20T00:47:25;102090.09;;;16.53;55.88
14204;BME280;7185;51.854;6.622;2023-05-20T00:50:00;102096.13;;;16.62;55.36
14204;BME280;7185;51.854;6.622;2023-05-20T00:52:32;102092.53;;;16.66;55.61
14204;BME280;7185;51.854;6.622;2023-05-20T00:55:05;102093.44;;;16.65;55.76
14204;BME280;7185;51.854;6.622;2023-05-20T00:57:36;102091.22;;;16.41;56.23
14204;BME280;7185;51.854;6.622;2023-05-20T01:00:09;102086.84;;;16.39;56.30
14204;BME280;7185;51.854;6.622;2023-05-20T01:02:41;102091.25;;;16.40;56.44
14204;BME280;7185;51.854;6.622;2023-05-20T01:05:14;102089.41;;;16.44;56.54
14204;BME280;7185;51.854;6.622;2023-05-20T01:07:45;102086.78;;;16.42;56.75
14204;BME280;7185;51.854;6.622;2023-05-20T01:10:17;102090.31;;;16.42;56.82
14204;BME280;7185;51.854;6.622;2023-05-20T01:12:53;102096.59;;;16.37;56.95
14204;BME280;7185;51.854;6.622;2023-05-20T01:15:28;102094.63;;;16.48;57.06
14204;BME280;7185;51.854;6.622;2023-05-20T01:18:02;102101.25;;;16.24;57.51
14204;BME280;7185;51.854;6.622;2023-05-20T01:20:36;102095.47;;;16.50;56.79
14204;BME280;7185;51.854;6.622;2023-05-20T01:23:09;102099.38;;;16.29;57.32
14204;BME280;7185;51.854;6.622;2023-05-20T01:25:41;102096.66;;;16.34;57.38
14204;BME280;7185;51.854;6.622;2023-05-20T01:28:13;102099.63;;;16.15;57.93
14204;BME280;7185;51.854;6.622;2023-05-20T01:30:50;102095.59;;;16.44;57.23
14204;BME280;7185;51.854;6.622;2023-05-20T01:33:23;102092.53;;;16.19;57.87
14204;BME280;7185;51.854;6.622;2023-05-20T01:35:56;102098.00;;;16.08;58.67
14204;BME280;7185;51.854;6.622;2023-05-20T01:38:29;102091.13;;;16.46;57.58
14204;BME280;7185;51.854;6.622;2023-05-20T01:41:02;102092.81;;;16.50;57.04
14204;BME280;7185;51.854;6.622;2023-05-20T01:43:35;102087.69;;;16.41;57.33
14204;BME280;7185;51.854;6.622;2023-05-20T01:46:07;102087.66;;;16.44;57.36
14204;BME280;7185;51.854;6.622;2023-05-20T01:48:38;102082.56;;;16.32;57.65
14204;BME280;7185;51.854;6.622;2023-05-20T01:51:10;102076.31;;;16.36;57.66
14204;BME280;7185;51.854;6.622;2023-05-20T01:53:43;102084.22;;;16.37;57.89
14204;BME280;7185;51.854;6.622;2023-05-20T01:56:14;102077.19;;;16.38;58.02
14204;BME280;7185;51.854;6.622;2023-05-20T01:58:46;102076.44;;;16.30;57.97
14204;BME280;7185;51.854;6.622;2023-05-20T02:01:17;102074.63;;;16.32;58.48
14204;BME280;7185;51.854;6.622;2023-05-20T02:03:49;102076.41;;;16.31;58.39
14204;BME280;7185;51.854;6.622;2023-05-20T02:06:20;102070.22;;;16.32;58.31
14204;BME280;7185;51.854;6.622;2023-05-20T02:08:53;102072.94;;;16.28;58.47
14204;BME280;7185;51.854;6.622;2023-05-20T02:11:25;102073.06;;;16.21;58.52
14204;BME280;7185;51.854;6.622;2023-05-20T02:14:00;102071.47;;;16.11;58.59
14204;BME280;7185;51.854;6.622;2023-05-20T02:16:32;102070.75;;;16.03;59.17
14204;BME280;7185;51.854;6.622;2023-05-20T02:19:03;102068.00;;;16.07;59.26
14204;BME280;7185;51.854;6.622;2023-05-20T02:21:38;102067.19;;;16.04;59.23
14204;BME280;7185;51.854;6.622;2023-05-20T02:24:20;102058.25;;;16.11;58.94
14204;BME280;7185;51.854;6.622;2023-05-20T02:26:51;102058.28;;;16.09;59.56
14204;BME280;7185;51.854;6.622;2023-05-20T02:29:24;102060.06;;;16.07;59.25
14204;BME280;7185;51.854;6.622;2023-05-20T02:31:56;102054.81;;;16.06;59.64
14204;BME280;7185;51.854;6.622;2023-05-20T02:34:28;102052.94;;;16.11;59.48
14204;BME280;7185;51.854;6.622;2023-05-20T02:37:03;102058.16;;;16.17;59.30
14204;BME280;7185;51.854;6.622;2023-05-20T02:39:36;102051.22;;;16.10;59.54
14204;BME280;7185;51.854;6.622;2023-05-20T02:42:10;102046.88;;;16.06;59.73
14204;BME280;7185;51.854;6.622;2023-05-20T02:44:42;102053.41;;;15.86;60.56
14204;BME280;7185;51.854;6.622;2023-05-20T02:47:14;102053.69;;;15.68;61.01
14204;BME280;7185;51.854;6.622;2023-05-20T02:49:45;102051.72;;;15.79;60.94
14204;BME280;7185;51.854;6.622;2023-05-20T02:52:17;102049.19;;;15.73;60.83
14204;BME280;7185;51.854;6.622;2023-05-20T02:55:01;102044.91;;;15.66;61.15
14204;BME280;7185;51.854;6.622;2023-05-20T02:57:36;102046.59;;;15.70;61.10
14204;BME280;7185;51.854;6.622;2023-05-20T03:00:17;102047.69;;;15.56;61.59
14204;BME280;7185;51.854;6.622;2023-05-20T03:02:49;102050.28;;;15.59;61.62
14204;BME280;7185;51.854;6.622;2023-05-20T03:05:21;102054.88;;;15.46;61.98
14204;BME280;7185;51.854;6.622;2023-05-20T03:07:53;102052.31;;;15.42;62.10
14204;BME280;7185;51.854;6.622;2023-05-20T03:10:26;102048.66;;;15.49;62.16
14204;BME280;7185;51.854;6.622;2023-05-20T03:12:57;102047.75;;;15.53;61.85
14204;BME280;7185;51.854;6.622;2023-05-20T03:15:29;102057.59;;;15.42;62.15
14204;BME280;7185;51.854;6.622;2023-05-20T03:18:02;102054.94;;;15.42;62.30
14204;BME280;7185;51.854;6.622;2023-05-20T03:20:34;102050.53;;;15.44;62.22
14204;BME280;7185;51.854;6.622;2023-05-20T03:23:11;102055.94;;;15.35;62.26
14204;BME280;7185;51.854;6.622;2023-05-20T03:25:47;102052.56;;;15.25;62.36
14204;BME280;7185;51.854;6.622;2023-05-20T03:28:32;102056.13;;;15.22;62.86
14204;BME280;7185;51.854;6.622;2023-05-20T03:31:04;102063.88;;;15.35;62.48
14204;BME280;7185;51.854;6.622;2023-05-20T03:33:43;102069.19;;;15.33;62.53
14204;BME280;7185;51.854;6.622;2023-05-20T03:36:15;102062.06;;;15.38;62.57
14204;BME280;7185;51.854;6.622;2023-05-20T03:38:47;102069.09;;;15.39;62.39
14204;BME280;7185;51.854;6.622;2023-05-20T03:41:23;102070.00;;;15.37;62.81
14204;BME280;7185;51.854;6.622;2023-05-20T03:43:55;102062.28;;;15.23;63.04
14204;BME280;7185;51.854;6.622;2023-05-20T03:46:27;102060.44;;;15.29;62.91
14204;BME280;7185;51.854;6.622;2023-05-20T03:49:00;102061.19;;;15.38;62.75
14204;BME280;7185;51.854;6.622;2023-05-20T03:51:32;102060.38;;;15.34;62.80
14204;BME280;7185;51.854;6.622;2023-05-20T03:54:03;102056.03;;;15.28;63.10
14204;BME280;7185;51.854;6.622;2023-05-20T03:56:37;102058.66;;;15.32;62.71
14204;BME280;7185;51.854;6.622;2023-05-20T03:59:09;102058.59;;;15.36;62.89
14204;BME280;7185;51.854;6.622;2023-05-20T04:01:43;102055.03;;;15.36;62.87
14204;BME280;7185;51.854;6.622;2023-05-20T04:04:21;102058.53;;;15.39;62.90
14204;BME280;7185;51.854;6.622;2023-05-20T04:06:54;102049.09;;;15.21;63.22
14204;BME280;7185;51.854;6.622;2023-05-20T04:09:26;102054.09;;;15.41;62.91
14204;BME280;7185;51.854;6.622;2023-05-20T04:11:59;102055.19;;;15.28;63.25
14204;BME280;7185;51.854;6.622;2023-05-20T04:14:31;102057.78;;;15.29;63.22
14204;BME280;7185;51.854;6.622;2023-05-20T04:17:04;102061.09;;;15.44;63.05
14204;BME280;7185;51.854;6.622;2023-05-20T04:19:45;102064.81;;;15.30;62.97
14204;BME280;7185;51.854;6.622;2023-05-20T04:22:22;102067.34;;;15.38;63.06
14204;BME280;7185;51.854;6.622;2023-05-20T04:24:54;102068.06;;;15.48;62.86
14204;BME280;7185;51.854;6.622;2023-05-20T04:27:31;102064.44;;;15.55;62.90
14204;BME280;7185;51.854;6.622;2023-05-20T04:30:05;102068.69;;;15.66;62.71
14204;BME280;7185;51.854;6.622;2023-05-20T04:32:37;102063.31;;;15.72;62.13
14204;BME280;7185;51.854;6.622;2023-05-20T04:35:09;102073.09;;;15.67;62.29
14204;BME280;7185;51.854;6.622;2023-05-20T04:37:43;102065.94;;;15.72;62.45
14204;BME280;7185;51.854;6.622;2023-05-20T04:40:17;102072.91;;;15.76;62.36
14204;BME280;7185;51.854;6.622;2023-05-20T04:42:51;102072.97;;;15.73;61.72
14204;BME280;7185;51.854;6.622;2023-05-20T04:45:24;102072.88;;;15.79;62.18
14204;BME280;7185;51.854;6.622;2023-05-20T04:48:03;102078.16;;;15.79;61.84
14204;BME280;7185;51.854;6.622;2023-05-20T04:54:02;102077.78;;;16.04;61.29
14204;BME280;7185;51.854;6.622;2023-05-20T04:56:36;102075.13;;;16.04;61.19
14204;BME280;7185;51.854;6.622;2023-05-20T04:59:11;102068.94;;;16.06;61.49
14204;BME280;7185;51.854;6.622;2023-05-20T05:01:43;102065.28;;;16.12;60.61
14204;BME280;7185;51.854;6.622;2023-05-20T05:04:15;102066.91;;;16.19;60.34
14204;BME280;7185;51.854;6.622;2023-05-20T05:06:48;102070.38;;;16.24;60.28
14204;BME280;7185;51.854;6.622;2023-05-20T05:09:20;102063.38;;;16.20;60.41
14204;BME280;7185;51.854;6.622;2023-05-20T05:11:52;102064.75;;;16.40;60.30
14204;BME280;7185;51.854;6.622;2023-05-20T05:14:25;102057.63;;;16.45;60.50
14204;BME280;7185;51.854;6.622;2023-05-20T05:16:57;102060.16;;;16.50;59.79
14204;BME280;7185;51.854;6.622;2023-05-20T05:19:29;102058.50;;;16.46;59.95
14204;BME280;7185;51.854;6.622;2023-05-20T05:22:01;102064.44;;;16.59;59.72
14204;BME280;7185;51.854;6.622;2023-05-20T05:24:34;102062.53;;;16.64;59.65
14204;BME280;7185;51.854;6.622;2023-05-20T05:27:08;102056.94;;;16.79;58.99
14204;BME280;7185;51.854;6.622;2023-05-20T05:29:41;102052.25;;;16.92;58.73
14204;BME280;7185;51.854;6.622;2023-05-20T05:32:13;102059.31;;;16.95;58.87
14204;BME280;7185;51.854;6.622;2023-05-20T05:34:45;102051.28;;;16.98;58.46
14204;BME280;7185;51.854;6.622;2023-05-20T05:37:29;102052.88;;;17.05;58.71
14204;BME280;7185;51.854;6.622;2023-05-20T05:40:00;102055.97;;;16.83;58.77
14204;BME280;7185;51.854;6.622;2023-05-20T05:42:32;102056.56;;;16.98;57.91
14204;BME280;7185;51.854;6.622;2023-05-20T05:45:07;102047.78;;;16.96;57.88
14204;BME280;7185;51.854;6.622;2023-05-20T05:47:39;102061.97;;;16.92;58.02
14204;BME280;7185;51.854;6.622;2023-05-20T05:50:18;102059.03;;;17.07;58.18
14204;BME280;7185;51.854;6.622;2023-05-20T05:53:11;102062.84;;;16.92;58.65
14204;BME280;7185;51.854;6.622;2023-05-20T05:55:46;102056.13;;;16.74;58.22
14204;BME280;7185;51.854;6.622;2023-05-20T05:58:18;102054.63;;;17.06;58.15
14204;BME280;7185;51.854;6.622;2023-05-20T06:00:54;102053.84;;;17.40;57.12
14204;BME280;7185;51.854;6.622;2023-05-20T06:03:27;102057.41;;;17.39;57.15
14204;BME280;7185;51.854;6.622;2023-05-20T06:06:07;102053.00;;;17.40;57.26
14204;BME280;7185;51.854;6.622;2023-05-20T06:08:39;102051.94;;;17.47;56.96
14204;BME280;7185;51.854;6.622;2023-05-20T06:11:11;102055.66;;;17.38;57.00
14204;BME280;7185;51.854;6.622;2023-05-20T06:13:42;102048.00;;;17.26;57.03
14204;BME280;7185;51.854;6.622;2023-05-20T06:16:15;102055.16;;;17.22;57.35
14204;BME280;7185;51.854;6.622;2023-05-20T06:18:47;102052.78;;;17.47;56.96
14204;BME280;7185;51.854;6.622;2023-05-20T06:21:20;102046.06;;;17.70;56.52
14204;BME280;7185;51.854;6.622;2023-05-20T06:23:52;102043.81;;;17.53;57.49
14204;BME280;7185;51.854;6.622;2023-05-20T06:26:23;102041.44;;;17.78;56.28
14204;BME280;7185;51.854;6.622;2023-05-20T06:28:55;102040.22;;;17.90;56.13
14204;BME280;7185;51.854;6.622;2023-05-20T06:31:28;102033.94;;;17.94;56.08
14204;BME280;7185;51.854;6.622;2023-05-20T06:34:00;102025.78;;;18.02;55.57
14204;BME280;7185;51.854;6.622;2023-05-20T06:36:32;102026.06;;;18.26;54.65
14204;BME280;7185;51.854;6.622;2023-05-20T06:39:04;102015.97;;;18.39;54.79
14204;BME280;7185;51.854;6.622;2023-05-20T06:41:41;102013.81;;;18.52;54.48
14204;BME280;7185;51.854;6.622;2023-05-20T06:44:13;102010.44;;;18.46;54.38
14204;BME280;7185;51.854;6.622;2023-05-20T06:46:46;102009.34;;;18.54;53.81
14204;BME280;7185;51.854;6.622;2023-05-20T06:49:21;102006.91;;;18.76;53.58
14204;BME280;7185;51.854;6.622;2023-05-20T06:51:55;102004.47;;;18.68;53.12
14204;BME280;7185;51.854;6.622;2023-05-20T06:54:29;101998.34;;;18.96;52.47
14204;BME280;7185;51.854;6.622;2023-05-20T06:57:03;102004.31;;;19.04;52.02
14204;BME280;7185;51.854;6.622;2023-05-20T06:59:36;101999.91;;;19.03;52.20
14204;BME280;7185;51.854;6.622;2023-05-20T07:02:09;101994.59;;;19.03;51.84
14204;BME280;7185;51.854;6.622;2023-05-20T07:04:41;101993.59;;;19.34;51.49
14204;BME280;7185;51.854;6.622;2023-05-20T07:07:13;101993.00;;;19.24;50.58
14204;BME280;7185;51.854;6.622;2023-05-20T07:09:45;101988.69;;;19.49;49.46
14204;BME280;7185;51.854;6.622;2023-05-20T07:12:25;101997.19;;;19.33;50.31
14204;BME280;7185;51.854;6.622;2023-05-20T07:14:57;101994.59;;;19.30;49.50
14204;BME280;7185;51.854;6.622;2023-05-20T07:17:31;101995.13;;;19.68;49.21
14204;BME280;7185;51.854;6.622;2023-05-20T07:20:03;101992.25;;;19.74;49.55
14204;BME280;7185;51.854;6.622;2023-05-20T07:22:35;101989.66;;;19.98;47.95
14204;BME280;7185;51.854;6.622;2023-05-20T07:25:19;101992.81;;;20.10;48.11
14204;BME280;7185;51.854;6.622;2023-05-20T07:27:52;101993.03;;;20.29;47.58
14204;BME280;7185;51.854;6.622;2023-05-20T07:30:27;101988.31;;;20.12;47.92
14204;BME280;7185;51.854;6.622;2023-05-20T07:33:06;101987.19;;;20.19;47.66
14204;BME280;7185;51.854;6.622;2023-05-20T07:46:02;101966.69;;;20.67;45.41
14204;BME280;7185;51.854;6.622;2023-05-20T07:48:35;101978.59;;;20.58;45.23
14204;BME280;7185;51.854;6.622;2023-05-20T07:51:10;101962.06;;;20.74;45.36
14204;BME280;7185;51.854;6.622;2023-05-20T07:53:42;101963.41;;;20.84;44.74
14204;BME280;7185;51.854;6.622;2023-05-20T07:56:14;101968.50;;;20.90;45.06
14204;BME280;7185;51.854;6.622;2023-05-20T07:58:51;101960.91;;;20.79;45.59
14204;BME280;7185;51.854;6.622;2023-05-20T08:01:23;101964.66;;;20.97;44.76
14204;BME280;7185;51.854;6.622;2023-05-20T08:03:57;101969.63;;;21.07;44.06
14204;BME280;7185;51.854;6.622;2023-05-20T08:06:29;101975.53;;;21.36;43.87
14204;BME280;7185;51.854;6.622;2023-05-20T08:15:58;101957.81;;;21.34;43.86
14204;BME280;7185;51.854;6.622;2023-05-20T08:18:30;101958.91;;;21.51;43.29
14204;BME280;7185;51.854;6.622;2023-05-20T08:21:05;101968.06;;;21.66;42.90
14204;BME280;7185;51.854;6.622;2023-05-20T08:23:43;101961.59;;;21.72;43.04
14204;BME280;7185;51.854;6.622;2023-05-20T08:26:20;101974.22;;;21.68;42.73
14204;BME280;7185;51.854;6.622;2023-05-20T08:28:52;101958.44;;;21.41;42.99
14204;BME280;7185;51.854;6.622;2023-05-20T08:31:25;101958.53;;;21.81;43.40
14204;BME280;7185;51.854;6.622;2023-05-20T08:33:57;101969.34;;;21.78;42.40
14204;BME280;7185;51.854;6.622;2023-05-20T08:36:31;101959.91;;;21.90;42.20
14204;BME280;7185;51.854;6.622;2023-05-20T08:46:01;101954.63;;;22.28;41.80
14204;BME280;7185;51.854;6.622;2023-05-20T08:48:35;101944.56;;;22.73;41.44
14204;BME280;7185;51.854;6.622;2023-05-20T08:51:08;101951.91;;;22.68;41.29
14204;BME280;7185;51.854;6.622;2023-05-20T08:53:48;101938.44;;;22.88;40.85
14204;BME280;7185;51.854;6.622;2023-05-20T08:56:20;101940.47;;;23.02;39.56
14204;BME280;7185;51.854;6.622;2023-05-20T08:58:52;101937.88;;;23.01;39.61
14204;BME280;7185;51.854;6.622;2023-05-20T09:04:51;101932.53;;;23.01;39.04
14204;BME280;7185;51.854;6.622;2023-05-20T09:07:29;101930.25;;;23.11;39.03
14204;BME280;7185;51.854;6.622;2023-05-20T09:10:04;101932.41;;;23.39;39.86
14204;BME280;7185;51.854;6.622;2023-05-20T09:12:36;101938.16;;;23.31;39.21
14204;BME280;7185;51.854;6.622;2023-05-20T09:15:08;101930.31;;;23.79;38.39
14204;BME280;7185;51.854;6.622;2023-05-20T09:17:40;101934.41;;;24.04;37.61
14204;BME280;7185;51.854;6.622;2023-05-20T09:20:12;101929.03;;;24.04;37.44
14204;BME280;7185;51.854;6.622;2023-05-20T09:22:44;101937.69;;;24.09;38.10
14204;BME280;7185;51.854;6.622;2023-05-20T09:32:30;101922.00;;;24.35;36.77
14204;BME280;7185;51.854;6.622;2023-05-20T09:35:02;101922.50;;;24.10;38.64
14204;BME280;7185;51.854;6.622;2023-05-20T09:37:36;101920.72;;;23.93;38.32
14204;BME280;7185;51.854;6.622;2023-05-20T09:40:10;101924.66;;;23.85;38.49
14204;BME280;7185;51.854;6.622;2023-05-20T09:42:46;101925.09;;;23.60;38.66
14204;BME280;7185;51.854;6.622;2023-05-20T09:45:21;101920.81;;;23.74;38.48
14204;BME280;7185;51.854;6.622;2023-05-20T09:47:55;101931.97;;;23.99;38.20
14204;BME280;7185;51.854;6.622;2023-05-20T09:50:27;101935.44;;;24.01;38.64
14204;BME280;7185;51.854;6.622;2023-05-20T09:53:02;101926.50;;;23.67;38.02
14204;BME280;7185;51.854;6.622;2023-05-20T09:55:34;101933.44;;;23.87;39.08
14204;BME280;7185;51.854;6.622;2023-05-20T09:58:08;101926.25;;;23.54;38.51
14204;BME280;7185;51.854;6.622;2023-05-20T10:00:41;101923.78;;;22.97;40.00
14204;BME280;7185;51.854;6.622;2023-05-20T10:03:14;101926.53;;;23.13;39.18
14204;BME280;7185;51.854;6.622;2023-05-20T10:05:49;101928.72;;;23.05;39.47
14204;BME280;7185;51.854;6.622;2023-05-20T10:08:33;101917.22;;;23.39;38.82
14204;BME280;7185;51.854;6.622;2023-05-20T10:11:16;101924.06;;;23.63;38.52
14204;BME280;7185;51.854;6.622;2023-05-20T10:14:17;101911.91;;;23.73;38.01
14204;BME280;7185;51.854;6.622;2023-05-20T10:16:53;101915.66;;;23.86;37.91
14204;BME280;7185;51.854;6.622;2023-05-20T10:19:31;101902.22;;;23.70;39.31
14204;BME280;7185;51.854;6.622;2023-05-20T10:22:04;101902.50;;;23.99;38.30
14204;BME280;7185;51.854;6.622;2023-05-20T10:24:37;101910.72;;;23.61;38.42
14204;BME280;7185;51.854;6.622;2023-05-20T10:27:11;101901.66;;;23.81;37.61
14204;BME280;7185;51.854;6.622;2023-05-20T10:29:45;101898.97;;;23.81;38.15
14204;BME280;7185;51.854;6.622;2023-05-20T10:32:23;101902.63;;;23.63;38.84
14204;BME280;7185;51.854;6.622;2023-05-20T10:35:00;101889.91;;;23.50;37.84
14204;BME280;7185;51.854;6.622;2023-05-20T10:37:41;101896.66;;;23.40;38.20
14204;BME280;7185;51.854;6.622;2023-05-20T10:40:14;101888.16;;;23.49;38.15
14204;BME280;7185;51.854;6.622;2023-05-20T10:42:46;101881.72;;;23.18;38.87
14204;BME280;7185;51.854;6.622;2023-05-20T10:45:24;101883.03;;;23.10;39.15
14204;BME280;7185;51.854;6.622;2023-05-20T10:47:57;101883.44;;;23.54;39.24
14204;BME280;7185;51.854;6.622;2023-05-20T10:50:34;101878.06;;;23.02;39.72
14204;BME280;7185;51.854;6.622;2023-05-20T10:53:11;101871.81;;;23.20;39.69
14204;BME280;7185;51.854;6.622;2023-05-20T10:55:48;101872.88;;;23.16;39.54
14204;BME280;7185;51.854;6.622;2023-05-20T10:58:21;101876.19;;;23.39;40.29
14204;BME280;7185;51.854;6.622;2023-05-20T11:00:55;101861.72;;;23.43;38.93
14204;BME280;7185;51.854;6.622;2023-05-20T11:03:28;101855.66;;;23.73;38.57
14204;BME280;7185;51.854;6.622;2023-05-20T11:06:10;101855.22;;;23.65;38.96
14204;BME280;7185;51.854;6.622;2023-05-20T11:08:41;101852.13;;;24.06;38.71
14204;BME280;7185;51.854;6.622;2023-05-20T11:11:14;101847.88;;;24.50;37.81
14204;BME280;7185;51.854;6.622;2023-05-20T11:13:49;101853.53;;;24.13;38.77
14204;BME280;7185;51.854;6.622;2023-05-20T11:16:21;101841.22;;;24.57;38.08
14204;BME280;7185;51.854;6.622;2023-05-20T11:18:52;101839.00;;;24.17;38.37
14204;BME280;7185;51.854;6.622;2023-05-20T11:21:25;101842.44;;;24.35;38.47
14204;BME280;7185;51.854;6.622;2023-05-20T11:23:58;101834.84;;;23.96;38.62
14204;BME280;7185;51.854;6.622;2023-05-20T11:26:30;101832.19;;;24.28;38.44
14204;BME280;7185;51.854;6.622;2023-05-20T11:29:02;101820.72;;;24.72;39.03
14204;BME280;7185;51.854;6.622;2023-05-20T11:31:36;101827.22;;;24.68;37.51
14204;BME280;7185;51.854;6.622;2023-05-20T11:34:08;101819.44;;;24.47;38.58
14204;BME280;7185;51.854;6.622;2023-05-20T11:36:41;101824.59;;;24.82;37.67
14204;BME280;7185;51.854;6.622;2023-05-20T11:39:13;101827.59;;;24.92;37.52
14204;BME280;7185;51.854;6.622;2023-05-20T11:41:45;101829.44;;;25.21;36.53
14204;BME280;7185;51.854;6.622;2023-05-20T11:44:18;101821.69;;;25.30;36.32
14204;BME280;7185;51.854;6.622;2023-05-20T11:46:50;101820.69;;;25.03;37.23
14204;BME280;7185;51.854;6.622;2023-05-20T11:49:22;101824.75;;;24.79;37.01
14204;BME280;7185;51.854;6.622;2023-05-20T11:51:55;101825.16;;;24.88;37.05
14204;BME280;7185;51.854;6.622;2023-05-20T11:54:27;101831.53;;;24.71;36.77
14204;BME280;7185;51.854;6.622;2023-05-20T11:56:58;101822.53;;;24.72;37.56
14204;BME280;7185;51.854;6.622;2023-05-20T11:59:30;101819.97;;;24.70;37.72
14204;BME280;7185;51.854;6.622;2023-05-20T12:02:03;101812.66;;;25.03;37.89
14204;BME280;7185;51.854;6.622;2023-05-20T12:04:34;101805.28;;;25.06;37.18
14204;BME280;7185;51.854;6.622;2023-05-20T12:07:07;101803.75;;;25.02;37.27
14204;BME280;7185;51.854;6.622;2023-05-20T12:09:39;101802.38;;;24.95;36.65
14204;BME280;7185;51.854;6.622;2023-05-20T12:12:11;101794.53;;;25.06;37.06
14204;BME280;7185;51.854;6.622;2023-05-20T12:14:43;101792.47;;;25.11;37.41
14204;BME280;7185;51.854;6.622;2023-05-20T12:17:14;101788.00;;;25.41;36.47
14204;BME280;7185;51.854;6.622;2023-05-20T12:19:46;101770.78;;;25.87;35.76
14204;BME280;7185;51.854;6.622;2023-05-20T12:22:19;101758.31;;;26.68;33.97
14204;BME280;7185;51.854;6.622;2023-05-20T12:24:51;101752.41;;;26.35;34.91
14204;BME280;7185;51.854;6.622;2023-05-20T12:27:22;101764.66;;;26.67;34.08
14204;BME280;7185;51.854;6.622;2023-05-20T12:29:54;101752.63;;;26.72;34.78
14204;BME280;7185;51.854;6.622;2023-05-20T12:32:25;101748.88;;;26.07;35.07
14204;BME280;7185;51.854;6.622;2023-05-20T12:34:57;101755.25;;;26.47;34.61
14204;BME280;7185;51.854;6.622;2023-05-20T12:37:30;101758.59;;;25.81;34.87
14204;BME280;7185;51.854;6.622;2023-05-20T12:40:02;101745.28;;;25.80;35.08
14204;BME280;7185;51.854;6.622;2023-05-20T12:42:37;101747.34;;;26.03;35.21
14204;BME280;7185;51.854;6.622;2023-05-20T12:45:10;101745.81;;;26.67;34.25
14204;BME280;7185;51.854;6.622;2023-05-20T12:47:43;101736.59;;;26.03;34.90
14204;BME280;7185;51.854;6.622;2023-05-20T12:50:15;101741.38;;;26.13;34.48
14204;BME280;7185;51.854;6.622;2023-05-20T12:52:48;101740.41;;;26.14;35.12
14204;BME280;7185;51.854;6.622;2023-05-20T12:55:19;101738.16;;;26.88;33.64
14204;BME280;7185;51.854;6.622;2023-05-20T12:57:53;101731.66;;;27.29;33.23
14204;BME280;7185;51.854;6.622;2023-05-20T13:00:24;101735.66;;;26.85;33.02
14204;BME280;7185;51.854;6.622;2023-05-20T13:02:56;101738.22;;;26.33;33.30
14204;BME280;7185;51.854;6.622;2023-05-20T13:05:27;101737.53;;;26.17;34.38
14204;BME280;7185;51.854;6.622;2023-05-20T13:08:00;101738.56;;;25.87;34.91
14204;BME280;7185;51.854;6.622;2023-05-20T13:10:32;101745.06;;;26.52;33.98
14204;BME280;7185;51.854;6.622;2023-05-20T13:13:04;101739.34;;;26.02;34.31
14204;BME280;7185;51.854;6.622;2023-05-20T13:15:35;101738.41;;;25.75;34.61
14204;BME280;7185;51.854;6.622;2023-05-20T13:18:07;101739.00;;;25.52;34.57
14204;BME280;7185;51.854;6.622;2023-05-20T13:20:40;101728.59;;;26.02;34.71
14204;BME280;7185;51.854;6.622;2023-05-20T13:23:13;101727.47;;;26.33;33.49
14204;BME280;7185;51.854;6.622;2023-05-20T13:25:44;101729.78;;;26.65;34.39
14204;BME280;7185;51.854;6.622;2023-05-20T13:28:16;101728.34;;;26.47;34.21
14204;BME280;7185;51.854;6.622;2023-05-20T13:30:50;101725.38;;;26.64;33.41
14204;BME280;7185;51.854;6.622;2023-05-20T13:33:21;101731.19;;;26.58;32.67
14204;BME280;7185;51.854;6.622;2023-05-20T13:35:53;101722.88;;;26.61;32.64
14204;BME280;7185;51.854;6.622;2023-05-20T13:38:26;101722.97;;;26.47;32.86
14204;BME280;7185;51.854;6.622;2023-05-20T13:41:01;101706.16;;;26.30;33.41
14204;BME280;7185;51.854;6.622;2023-05-20T13:43:32;101700.47;;;26.88;32.40
14204;BME280;7185;51.854;6.622;2023-05-20T13:46:04;101707.31;;;27.44;31.44
14204;BME280;7185;51.854;6.622;2023-05-20T13:48:35;101697.63;;;27.15;32.48
14204;BME280;7185;51.854;6.622;2023-05-20T13:51:07;101699.19;;;26.81;32.64
14204;BME280;7185;51.854;6.622;2023-05-20T13:53:40;101701.00;;;26.80;32.72
14204;BME280;7185;51.854;6.622;2023-05-20T13:56:11;101691.63;;;26.86;32.66
14204;BME280;7185;51.854;6.622;2023-05-20T13:58:43;101699.88;;;26.57;33.74
14204;BME280;7185;51.854;6.622;2023-05-20T14:01:15;101699.75;;;26.46;33.44
14204;BME280;7185;51.854;6.622;2023-05-20T14:03:47;101689.97;;;26.70;33.22
14204;BME280;7185;51.854;6.622;2023-05-20T14:06:19;101696.34;;;26.56;34.07
14204;BME280;7185;51.854;6.622;2023-05-20T14:08:53;101694.84;;;26.12;34.31
14204;BME280;7185;51.854;6.622;2023-05-20T14:11:25;101687.31;;;25.90;34.71